sensor_id;sensor_type;location;lat;lon;timestamp;temperature;humidity
8888;DHT22;4480;52.370;9.748;2024-01-25T00:00:21;8.40;99.90
8888;DHT22;4480;52.370;9.748;2024-01-25T00:02:48;8.40;99.90
8888;DHT22;4480;52.370;9.748;2024-01-25T00:05:15;8.30;99.90
8888;DHT22;4480;52.370;9.748;2024-01-25T00:07:45;8.40;99.90
8888;DHT22;4480;52.370;9.748;2024-01-25T00:10:14;8.30;99.90
8888;DHT22;4480;52.370;9.748;2024-01-25T00:12:41;8.30;99.90
8888;DHT22;4480;52.370;9.748;2024-01-25T00:15:08;8.30;99.90
8888;DHT22;4480;52.370;9.748;2024-01-25T00:17:35;8.30;99.90
8888;DHT22;4480;52.370;9.748;2024-01-25T00:20:03;8.30;99.90
8888;DHT22;4480;52.370;9.748;2024-01-25T00:22:30;8.30;99.90
8888;DHT22;4480;52.370;9.748;2024-01-25T00:24:58;8.30;99.90
8888;DHT22;4480;52.370;9.748;2024-01-25T00:27:26;8.30;99.90
8888;DHT22;4480;52.370;9.748;2024-01-25T00:29:53;8.30;99.90
8888;DHT22;4480;52.370;9.748;2024-01-25T00:32:20;8.30;99.90
8888;DHT22;4480;52.370;9.748;2024-01-25T00:34:47;8.30;99.90
8888;DHT22;4480;52.370;9.748;2024-01-25T00:37:14;8.30;99.90
8888;DHT22;4480;52.370;9.748;2024-01-25T00:39:42;8.20;99.90
8888;DHT22;4480;52.370;9.748;2024-01-25T00:42:12;8.30;99.90
8888;DHT22;4480;52.370;9.748;2024-01-25T00:44:41;8.30;99.90
8888;DHT22;4480;52.370;9.748;2024-01-25T00:47:09;8.30;99.90
8888;DHT22;4480;52.370;9.748;2024-01-25T00:49:36;8.20;99.90
8888;DHT22;4480;52.370;9.748;2024-01-25T00:52:03;8.20;99.90
8888;DHT22;4480;52.370;9.748;2024-01-25T00:54:31;8.20;99.90
8888;DHT22;4480;52.370;9.748;2024-01-25T00:56:59;8.30;99.90
8888;DHT22;4480;52.370;9.748;2024-01-25T00:59:26;8.30;99.90
8888;DHT22;4480;52.370;9.748;2024-01-25T01:01:55;8.30;99.90
8888;DHT22;4480;52.370;9.748;2024-01-25T01:04:25;8.30;99.90
8888;DHT22;4480;52.370;9.748;2024-01-25T01:06:52;8.20;99.90
8888;DHT22;4480;52.370;9.748;2024-01-25T01:09:19;8.20;99.90
8888;DHT22;4480;52.370;9.748;2024-01-25T01:11:47;8.20;99.90
8888;DHT22;4480;52.370;9.748;2024-01-25T01:14:15;8.20;99.90
8888;DHT22;4480;52.370;9.748;2024-01-25T01:16:42;8.20;99.90
8888;DHT22;4480;52.370;9.748;2024-01-25T01:19:11;8.20;99.90
8888;DHT22;4480;52.370;9.748;2024-01-25T01:21:38;8.10;99.90
8888;DHT22;4480;52.370;9.748;2024-01-25T01:24:09;8.10;99.90
8888;DHT22;4480;52.370;9.748;2024-01-25T01:26:36;8.10;99.90
8888;DHT22;4480;52.370;9.748;2024-01-25T01:29:03;8.00;99.90
8888;DHT22;4480;52.370;9.748;2024-01-25T01:31:30;7.90;99.90
8888;DHT22;4480;52.370;9.748;2024-01-25T01:33:57;7.90;99.90
8888;DHT22;4480;52.370;9.748;2024-01-25T01:36:26;7.90;99.90
8888;DHT22;4480;52.370;9.748;2024-01-25T01:38:52;7.80;99.90
8888;DHT22;4480;52.370;9.748;2024-01-25T01:41:19;7.80;99.90
8888;DHT22;4480;52.370;9.748;2024-01-25T01:43:46;7.80;99.90
8888;DHT22;4480;52.370;9.748;2024-01-25T01:46:24;7.80;99.90
8888;DHT22;4480;52.370;9.748;2024-01-25T01:48:54;7.80;99.90
8888;DHT22;4480;52.370;9.748;2024-01-25T01:51:21;7.70;99.90
8888;DHT22;4480;52.370;9.748;2024-01-25T01:53:50;7.70;99.90
8888;DHT22;4480;52.370;9.748;2024-01-25T01:56:17;7.70;99.90
8888;DHT22;4480;52.370;9.748;2024-01-25T01:58:45;7.70;99.90
8888;DHT22;4480;52.370;9.748;2024-01-25T02:01:13;7.70;99.90
8888;DHT22;4480;52.370;9.748;2024-01-25T02:03:40;7.60;99.90
8888;DHT22;4480;52.370;9.748;2024-01-25T02:06:06;7.60;99.90
8888;DHT22;4480;52.370;9.748;2024-01-25T02:08:33;7.60;99.90
8888;DHT22;4480;52.370;9.748;2024-01-25T02:11:02;7.60;99.90
8888;DHT22;4480;52.370;9.748;2024-01-25T02:13:29;7.60;99.90
8888;DHT22;4480;52.370;9.748;2024-01-25T02:15:56;7.60;99.90
8888;DHT22;4480;52.370;9.748;2024-01-25T02:18:23;7.60;99.90
8888;DHT22;4480;52.370;9.748;2024-01-25T02:20:50;7.60;99.90
8888;DHT22;4480;52.370;9.748;2024-01-25T02:23:18;7.60;99.90
8888;DHT22;4480;52.370;9.748;2024-01-25T02:25:45;7.60;99.90
8888;DHT22;4480;52.370;9.748;2024-01-25T02:28:12;7.60;99.90
8888;DHT22;4480;52.370;9.748;2024-01-25T02:30:39;7.60;99.90
8888;DHT22;4480;52.370;9.748;2024-01-25T02:33:05;7.60;99.90
8888;DHT22;4480;52.370;9.748;2024-01-25T02:35:32;7.60;99.90
8888;DHT22;4480;52.370;9.748;2024-01-25T02:38:00;7.60;99.90
8888;DHT22;4480;52.370;9.748;2024-01-25T02:40:28;7.60;99.90
8888;DHT22;4480;52.370;9.748;2024-01-25T02:42:55;7.60;99.90
8888;DHT22;4480;52.370;9.748;2024-01-25T02:45:22;7.60;99.90
8888;DHT22;4480;52.370;9.748;2024-01-25T02:47:49;7.60;99.90
8888;DHT22;4480;52.370;9.748;2024-01-25T02:50:16;7.60;99.90
8888;DHT22;4480;52.370;9.748;2024-01-25T02:52:43;7.60;99.90
8888;DHT22;4480;52.370;9.748;2024-01-25T02:55:10;7.60;99.90
8888;DHT22;4480;52.370;9.748;2024-01-25T02:57:38;7.60;99.90
8888;DHT22;4480;52.370;9.748;2024-01-25T03:00:06;7.60;99.90
8888;DHT22;4480;52.370;9.748;2024-01-25T03:02:34;7.60;99.90
8888;DHT22;4480;52.370;9.748;2024-01-25T03:05:01;7.60;99.90
8888;DHT22;4480;52.370;9.748;2024-01-25T03:07:28;7.60;99.90
8888;DHT22;4480;52.370;9.748;2024-01-25T03:09:55;7.60;99.90
8888;DHT22;4480;52.370;9.748;2024-01-25T03:12:21;7.60;99.90
8888;DHT22;4480;52.370;9.748;2024-01-25T03:14:50;7.60;99.90
8888;DHT22;4480;52.370;9.748;2024-01-25T03:17:17;7.60;99.90
8888;DHT22;4480;52.370;9.748;2024-01-25T03:19:44;7.60;99.90
8888;DHT22;4480;52.370;9.748;2024-01-25T03:22:11;7.60;99.90
8888;DHT22;4480;52.370;9.748;2024-01-25T03:24:38;7.60;99.90
8888;DHT22;4480;52.370;9.748;2024-01-25T03:27:05;7.60;99.90
8888;DHT22;4480;52.370;9.748;2024-01-25T03:29:40;7.60;99.90
8888;DHT22;4480;52.370;9.748;2024-01-25T03:32:08;7.60;99.90
8888;DHT22;4480;52.370;9.748;2024-01-25T03:34:35;7.60;99.90
8888;DHT22;4480;52.370;9.748;2024-01-25T03:37:02;7.60;99.90
8888;DHT22;4480;52.370;9.748;2024-01-25T03:39:29;7.50;99.90
8888;DHT22;4480;52.370;9.748;2024-01-25T03:41:56;7.50;99.90
8888;DHT22;4480;52.370;9.748;2024-01-25T03:44:23;7.60;99.90
8888;DHT22;4480;52.370;9.748;2024-01-25T03:46:50;7.60;99.90
8888;DHT22;4480;52.370;9.748;2024-01-25T03:49:18;7.50;99.90
8888;DHT22;4480;52.370;9.748;2024-01-25T03:51:48;7.50;99.90
8888;DHT22;4480;52.370;9.748;2024-01-25T03:54:15;7.50;99.90
8888;DHT22;4480;52.370;9.748;2024-01-25T03:56:42;7.50;99.90
8888;DHT22;4480;52.370;9.748;2024-01-25T03:59:09;7.50;99.90
8888;DHT22;4480;52.370;9.748;2024-01-25T04:01:43;7.50;99.90
8888;DHT22;4480;52.370;9.748;2024-01-25T04:04:10;7.40;99.90
8888;DHT22;4480;52.370;9.748;2024-01-25T04:06:41;7.40;99.90
8888;DHT22;4480;52.370;9.748;2024-01-25T04:09:09;7.40;99.90
8888;DHT22;4480;52.370;9.748;2024-01-25T04:13:02;7.40;99.90
8888;DHT22;4480;52.370;9.748;2024-01-25T04:15:30;7.40;99.90
8888;DHT22;4480;52.370;9.748;2024-01-25T04:17:57;7.40;99.90
8888;DHT22;4480;52.370;9.748;2024-01-25T04:20:23;7.30;99.90
8888;DHT22;4480;52.370;9.748;2024-01-25T04:22:50;7.30;99.90
8888;DHT22;4480;52.370;9.748;2024-01-25T04:25:17;7.30;99.90
8888;DHT22;4480;52.370;9.748;2024-01-25T04:27:44;7.30;99.90
8888;DHT22;4480;52.370;9.748;2024-01-25T04:30:13;7.30;99.90
8888;DHT22;4480;52.370;9.748;2024-01-25T04:32:39;7.20;99.90
8888;DHT22;4480;52.370;9.748;2024-01-25T04:35:08;7.20;99.90
8888;DHT22;4480;52.370;9.748;2024-01-25T04:40:57;7.20;99.90
8888;DHT22;4480;52.370;9.748;2024-01-25T04:43:24;7.10;99.90
8888;DHT22;4480;52.370;9.748;2024-01-25T04:45:52;7.10;99.90
8888;DHT22;4480;52.370;9.748;2024-01-25T04:48:19;7.10;99.90
8888;DHT22;4480;52.370;9.748;2024-01-25T04:50:45;7.10;99.90
8888;DHT22;4480;52.370;9.748;2024-01-25T04:53:12;7.10;99.90
8888;DHT22;4480;52.370;9.748;2024-01-25T04:55:39;7.00;99.90
8888;DHT22;4480;52.370;9.748;2024-01-25T04:58:05;7.00;99.90
8888;DHT22;4480;52.370;9.748;2024-01-25T05:00:38;7.00;99.90
8888;DHT22;4480;52.370;9.748;2024-01-25T05:03:06;7.00;99.90
8888;DHT22;4480;52.370;9.748;2024-01-25T05:05:33;7.00;99.90
8888;DHT22;4480;52.370;9.748;2024-01-25T05:08:00;7.00;99.90
8888;DHT22;4480;52.370;9.748;2024-01-25T05:10:27;6.90;99.90
8888;DHT22;4480;52.370;9.748;2024-01-25T05:12:53;6.90;99.90
8888;DHT22;4480;52.370;9.748;2024-01-25T05:15:20;6.90;99.90
8888;DHT22;4480;52.370;9.748;2024-01-25T05:17:47;6.80;99.90
8888;DHT22;4480;52.370;9.748;2024-01-25T05:20:15;6.80;99.90
8888;DHT22;4480;52.370;9.748;2024-01-25T05:22:43;6.80;99.90
8888;DHT22;4480;52.370;9.748;2024-01-25T05:25:11;6.80;99.90
8888;DHT22;4480;52.370;9.748;2024-01-25T05:27:38;6.80;99.90
8888;DHT22;4480;52.370;9.748;2024-01-25T05:30:06;6.80;99.90
8888;DHT22;4480;52.370;9.748;2024-01-25T05:32:35;6.70;99.90
8888;DHT22;4480;52.370;9.748;2024-01-25T05:35:03;6.70;99.90
8888;DHT22;4480;52.370;9.748;2024-01-25T05:37:31;6.70;99.90
8888;DHT22;4480;52.370;9.748;2024-01-25T05:39:59;6.80;99.90
8888;DHT22;4480;52.370;9.748;2024-01-25T05:42:25;6.70;99.90
8888;DHT22;4480;52.370;9.748;2024-01-25T05:44:52;6.70;99.90
8888;DHT22;4480;52.370;9.748;2024-01-25T05:47:19;6.70;99.90
8888;DHT22;4480;52.370;9.748;2024-01-25T05:49:46;6.70;99.90
8888;DHT22;4480;52.370;9.748;2024-01-25T05:52:13;6.70;99.90
8888;DHT22;4480;52.370;9.748;2024-01-25T05:54:41;6.70;99.90
8888;DHT22;4480;52.370;9.748;2024-01-25T05:57:09;6.70;99.90
8888;DHT22;4480;52.370;9.748;2024-01-25T05:59:35;6.70;99.90
8888;DHT22;4480;52.370;9.748;2024-01-25T06:02:03;6.70;99.90
8888;DHT22;4480;52.370;9.748;2024-01-25T06:04:29;6.70;99.90
8888;DHT22;4480;52.370;9.748;2024-01-25T06:06:56;6.70;99.90
8888;DHT22;4480;52.370;9.748;2024-01-25T06:09:23;6.70;99.90
8888;DHT22;4480;52.370;9.748;2024-01-25T06:11:52;6.60;99.90
8888;DHT22;4480;52.370;9.748;2024-01-25T06:14:19;6.60;99.90
8888;DHT22;4480;52.370;9.748;2024-01-25T06:16:45;6.60;99.90
8888;DHT22;4480;52.370;9.748;2024-01-25T06:19:13;6.50;99.90
8888;DHT22;4480;52.370;9.748;2024-01-25T06:21:40;6.50;99.90
8888;DHT22;4480;52.370;9.748;2024-01-25T06:24:06;6.50;99.90
8888;DHT22;4480;52.370;9.748;2024-01-25T06:26:33;6.50;99.90
8888;DHT22;4480;52.370;9.748;2024-01-25T06:29:01;6.50;99.90
8888;DHT22;4480;52.370;9.748;2024-01-25T06:31:28;6.60;99.90
8888;DHT22;4480;52.370;9.748;2024-01-25T06:33:55;6.50;99.90
8888;DHT22;4480;52.370;9.748;2024-01-25T06:36:22;6.60;99.90
8888;DHT22;4480;52.370;9.748;2024-01-25T06:38:49;6.60;99.90
8888;DHT22;4480;52.370;9.748;2024-01-25T06:41:16;6.60;99.90
8888;DHT22;4480;52.370;9.748;2024-01-25T06:43:43;6.60;99.90
8888;DHT22;4480;52.370;9.748;2024-01-25T06:46:11;6.60;99.90
8888;DHT22;4480;52.370;9.748;2024-01-25T06:48:37;6.60;99.90
8888;DHT22;4480;52.370;9.748;2024-01-25T06:51:04;6.60;99.90
8888;DHT22;4480;52.370;9.748;2024-01-25T06:53:31;6.60;99.90
8888;DHT22;4480;52.370;9.748;2024-01-25T06:55:58;6.60;99.90
8888;DHT22;4480;52.370;9.748;2024-01-25T06:58:25;6.60;99.90
8888;DHT22;4480;52.370;9.748;2024-01-25T07:00:52;6.50;99.90
8888;DHT22;4480;52.370;9.748;2024-01-25T07:03:20;6.50;99.90
8888;DHT22;4480;52.370;9.748;2024-01-25T07:05:47;6.50;99.90
8888;DHT22;4480;52.370;9.748;2024-01-25T07:08:14;6.40;99.90
8888;DHT22;4480;52.370;9.748;2024-01-25T07:10:41;6.40;99.90
8888;DHT22;4480;52.370;9.748;2024-01-25T07:13:08;6.40;99.90
8888;DHT22;4480;52.370;9.748;2024-01-25T07:15:35;6.40;99.90
8888;DHT22;4480;52.370;9.748;2024-01-25T07:18:01;6.40;99.90
8888;DHT22;4480;52.370;9.748;2024-01-25T07:20:30;6.40;99.90
8888;DHT22;4480;52.370;9.748;2024-01-25T07:22:57;6.40;99.90
8888;DHT22;4480;52.370;9.748;2024-01-25T07:25:23;6.40;99.90
8888;DHT22;4480;52.370;9.748;2024-01-25T07:27:50;6.40;99.90
8888;DHT22;4480;52.370;9.748;2024-01-25T07:30:17;6.40;99.90
8888;DHT22;4480;52.370;9.748;2024-01-25T07:32:44;6.40;99.90
8888;DHT22;4480;52.370;9.748;2024-01-25T07:35:11;6.40;99.90
8888;DHT22;4480;52.370;9.748;2024-01-25T07:37:40;6.40;99.90
8888;DHT22;4480;52.370;9.748;2024-01-25T07:40:08;6.40;99.90
8888;DHT22;4480;52.370;9.748;2024-01-25T07:42:35;6.50;99.90
8888;DHT22;4480;52.370;9.748;2024-01-25T07:45:02;6.40;99.90
8888;DHT22;4480;52.370;9.748;2024-01-25T07:47:29;6.50;99.90
8888;DHT22;4480;52.370;9.748;2024-01-25T07:49:56;6.50;99.90
8888;DHT22;4480;52.370;9.748;2024-01-25T07:52:23;6.50;99.90
8888;DHT22;4480;52.370;9.748;2024-01-25T07:54:51;6.50;99.90
8888;DHT22;4480;52.370;9.748;2024-01-25T07:57:19;6.60;99.90
8888;DHT22;4480;52.370;9.748;2024-01-25T07:59:45;6.60;99.90
8888;DHT22;4480;52.370;9.748;2024-01-25T08:02:12;6.60;99.90
8888;DHT22;4480;52.370;9.748;2024-01-25T08:04:39;6.60;99.90
8888;DHT22;4480;52.370;9.748;2024-01-25T08:07:06;6.60;99.90
8888;DHT22;4480;52.370;9.748;2024-01-25T08:09:34;6.60;99.90
8888;DHT22;4480;52.370;9.748;2024-01-25T08:12:02;6.60;99.90
8888;DHT22;4480;52.370;9.748;2024-01-25T08:14:29;6.60;99.90
8888;DHT22;4480;52.370;9.748;2024-01-25T08:16:57;6.70;99.90
8888;DHT22;4480;52.370;9.748;2024-01-25T08:19:24;6.60;99.90
8888;DHT22;4480;52.370;9.748;2024-01-25T08:21:50;6.60;99.90
8888;DHT22;4480;52.370;9.748;2024-01-25T08:24:17;6.60;99.90
8888;DHT22;4480;52.370;9.748;2024-01-25T08:26:44;6.60;99.90
8888;DHT22;4480;52.370;9.748;2024-01-25T08:29:12;6.60;99.90
8888;DHT22;4480;52.370;9.748;2024-01-25T08:31:39;6.70;99.90
8888;DHT22;4480;52.370;9.748;2024-01-25T08:34:06;6.60;99.90
8888;DHT22;4480;52.370;9.748;2024-01-25T08:36:32;6.70;99.90
8888;DHT22;4480;52.370;9.748;2024-01-25T08:38:59;6.70;99.90
8888;DHT22;4480;52.370;9.748;2024-01-25T08:41:27;6.70;99.90
8888;DHT22;4480;52.370;9.748;2024-01-25T08:43:53;6.80;99.90
8888;DHT22;4480;52.370;9.748;2024-01-25T08:46:22;6.80;99.90
8888;DHT22;4480;52.370;9.748;2024-01-25T08:48:48;6.80;99.90
8888;DHT22;4480;52.370;9.748;2024-01-25T08:51:15;6.80;99.90
8888;DHT22;4480;52.370;9.748;2024-01-25T08:53:42;6.80;99.90
8888;DHT22;4480;52.370;9.748;2024-01-25T08:56:09;6.80;99.90
8888;DHT22;4480;52.370;9.748;2024-01-25T08:58:35;6.80;99.90
8888;DHT22;4480;52.370;9.748;2024-01-25T09:01:02;6.90;99.90
8888;DHT22;4480;52.370;9.748;2024-01-25T09:03:30;6.90;99.90
8888;DHT22;4480;52.370;9.748;2024-01-25T09:05:57;6.90;99.90
8888;DHT22;4480;52.370;9.748;2024-01-25T09:08:30;6.90;99.90
8888;DHT22;4480;52.370;9.748;2024-01-25T09:10:57;7.00;99.90
8888;DHT22;4480;52.370;9.748;2024-01-25T09:13:24;7.00;99.90
8888;DHT22;4480;52.370;9.748;2024-01-25T09:15:51;7.00;99.90
8888;DHT22;4480;52.370;9.748;2024-01-25T09:18:18;7.00;99.90
8888;DHT22;4480;52.370;9.748;2024-01-25T09:20:46;7.00;99.90
8888;DHT22;4480;52.370;9.748;2024-01-25T09:23:14;7.10;99.90
8888;DHT22;4480;52.370;9.748;2024-01-25T09:25:42;7.10;99.90
8888;DHT22;4480;52.370;9.748;2024-01-25T09:28:08;7.10;99.90
8888;DHT22;4480;52.370;9.748;2024-01-25T09:30:37;7.10;99.90
8888;DHT22;4480;52.370;9.748;2024-01-25T09:33:04;7.10;99.90
8888;DHT22;4480;52.370;9.748;2024-01-25T09:35:31;7.10;99.90
8888;DHT22;4480;52.370;9.748;2024-01-25T09:37:59;7.00;99.90
8888;DHT22;4480;52.370;9.748;2024-01-25T09:40:26;7.00;99.90
8888;DHT22;4480;52.370;9.748;2024-01-25T09:42:53;7.10;99.90
8888;DHT22;4480;52.370;9.748;2024-01-25T09:45:20;7.10;99.90
8888;DHT22;4480;52.370;9.748;2024-01-25T09:47:46;7.10;99.90
8888;DHT22;4480;52.370;9.748;2024-01-25T09:50:13;7.20;99.90
8888;DHT22;4480;52.370;9.748;2024-01-25T09:52:43;7.20;99.90
8888;DHT22;4480;52.370;9.748;2024-01-25T09:55:12;7.20;99.90
8888;DHT22;4480;52.370;9.748;2024-01-25T09:57:41;7.30;99.90
8888;DHT22;4480;52.370;9.748;2024-01-25T10:00:09;7.30;99.90
8888;DHT22;4480;52.370;9.748;2024-01-25T10:02:37;7.40;99.90
8888;DHT22;4480;52.370;9.748;2024-01-25T10:05:04;7.50;99.90
8888;DHT22;4480;52.370;9.748;2024-01-25T10:07:35;7.50;99.90
8888;DHT22;4480;52.370;9.748;2024-01-25T10:10:03;7.50;99.90
8888;DHT22;4480;52.370;9.748;2024-01-25T10:12:32;7.50;99.90
8888;DHT22;4480;52.370;9.748;2024-01-25T10:14:59;7.60;99.90
8888;DHT22;4480;52.370;9.748;2024-01-25T10:17:27;7.60;99.90
8888;DHT22;4480;52.370;9.748;2024-01-25T10:19:54;7.60;99.90
8888;DHT22;4480;52.370;9.748;2024-01-25T10:22:21;7.60;99.90
8888;DHT22;4480;52.370;9.748;2024-01-25T10:24:48;7.70;99.90
8888;DHT22;4480;52.370;9.748;2024-01-25T10:27:17;7.70;99.90
8888;DHT22;4480;52.370;9.748;2024-01-25T10:29:45;7.70;99.90
8888;DHT22;4480;52.370;9.748;2024-01-25T10:32:12;7.80;99.90
8888;DHT22;4480;52.370;9.748;2024-01-25T10:34:39;7.80;99.90
8888;DHT22;4480;52.370;9.748;2024-01-25T10:37:07;7.80;99.90
8888;DHT22;4480;52.370;9.748;2024-01-25T10:39:34;7.80;99.90
8888;DHT22;4480;52.370;9.748;2024-01-25T10:42:01;7.80;99.90
8888;DHT22;4480;52.370;9.748;2024-01-25T10:44:28;7.90;99.90
8888;DHT22;4480;52.370;9.748;2024-01-25T10:46:56;7.90;99.90
8888;DHT22;4480;52.370;9.748;2024-01-25T10:49:23;8.00;99.90
8888;DHT22;4480;52.370;9.748;2024-01-25T10:51:51;8.10;99.90
8888;DHT22;4480;52.370;9.748;2024-01-25T10:54:18;8.10;99.90
8888;DHT22;4480;52.370;9.748;2024-01-25T10:56:46;8.00;99.90
8888;DHT22;4480;52.370;9.748;2024-01-25T10:59:15;7.90;99.90
8888;DHT22;4480;52.370;9.748;2024-01-25T11:01:44;7.80;99.90
8888;DHT22;4480;52.370;9.748;2024-01-25T11:04:16;7.70;99.90
8888;DHT22;4480;52.370;9.748;2024-01-25T11:06:44;7.70;99.90
8888;DHT22;4480;52.370;9.748;2024-01-25T11:09:16;7.70;99.90
8888;DHT22;4480;52.370;9.748;2024-01-25T11:11:44;7.70;99.90
8888;DHT22;4480;52.370;9.748;2024-01-25T11:14:12;7.60;99.90
8888;DHT22;4480;52.370;9.748;2024-01-25T11:16:40;7.70;99.90
8888;DHT22;4480;52.370;9.748;2024-01-25T11:19:17;7.60;99.90
8888;DHT22;4480;52.370;9.748;2024-01-25T11:21:45;7.70;99.90
8888;DHT22;4480;52.370;9.748;2024-01-25T11:24:13;7.70;99.90
8888;DHT22;4480;52.370;9.748;2024-01-25T11:26:42;7.70;99.90
8888;DHT22;4480;52.370;9.748;2024-01-25T11:29:09;7.70;99.90
8888;DHT22;4480;52.370;9.748;2024-01-25T11:31:36;7.70;99.90
8888;DHT22;4480;52.370;9.748;2024-01-25T11:34:03;7.70;99.90
8888;DHT22;4480;52.370;9.748;2024-01-25T11:36:31;7.60;99.90
8888;DHT22;4480;52.370;9.748;2024-01-25T11:38:58;7.60;99.90
8888;DHT22;4480;52.370;9.748;2024-01-25T11:41:25;7.50;99.90
8888;DHT22;4480;52.370;9.748;2024-01-25T11:43:52;7.50;99.90
8888;DHT22;4480;52.370;9.748;2024-01-25T11:46:19;7.60;99.90
8888;DHT22;4480;52.370;9.748;2024-01-25T11:48:46;7.70;99.90
8888;DHT22;4480;52.370;9.748;2024-01-25T11:51:13;7.80;99.90
8888;DHT22;4480;52.370;9.748;2024-01-25T11:53:41;7.90;99.90
8888;DHT22;4480;52.370;9.748;2024-01-25T11:56:10;8.10;99.90
8888;DHT22;4480;52.370;9.748;2024-01-25T11:58:37;8.10;99.90
8888;DHT22;4480;52.370;9.748;2024-01-25T12:01:06;8.10;99.90
8888;DHT22;4480;52.370;9.748;2024-01-25T12:03:34;8.10;99.90
8888;DHT22;4480;52.370;9.748;2024-01-25T12:06:02;8.10;99.90
8888;DHT22;4480;52.370;9.748;2024-01-25T12:08:31;8.00;99.90
8888;DHT22;4480;52.370;9.748;2024-01-25T12:11:06;8.00;99.90
8888;DHT22;4480;52.370;9.748;2024-01-25T12:13:34;7.90;99.90
8888;DHT22;4480;52.370;9.748;2024-01-25T12:16:02;7.80;99.90
8888;DHT22;4480;52.370;9.748;2024-01-25T12:18:30;7.80;99.90
8888;DHT22;4480;52.370;9.748;2024-01-25T12:21:01;7.80;99.90
8888;DHT22;4480;52.370;9.748;2024-01-25T12:23:32;7.90;99.90
8888;DHT22;4480;52.370;9.748;2024-01-25T12:26:00;8.00;99.90
8888;DHT22;4480;52.370;9.748;2024-01-25T12:28:29;8.20;99.90
8888;DHT22;4480;52.370;9.748;2024-01-25T12:30:58;8.20;99.90
8888;DHT22;4480;52.370;9.748;2024-01-25T12:33:25;8.30;99.90
8888;DHT22;4480;52.370;9.748;2024-01-25T12:35:52;8.30;99.90
8888;DHT22;4480;52.370;9.748;2024-01-25T12:38:20;8.30;99.90
8888;DHT22;4480;52.370;9.748;2024-01-25T12:40:48;8.20;99.90
8888;DHT22;4480;52.370;9.748;2024-01-25T12:43:15;8.20;99.90
8888;DHT22;4480;52.370;9.748;2024-01-25T12:45:44;8.20;99.90
8888;DHT22;4480;52.370;9.748;2024-01-25T12:48:11;8.30;99.90
8888;DHT22;4480;52.370;9.748;2024-01-25T12:50:37;8.30;99.90
8888;DHT22;4480;52.370;9.748;2024-01-25T12:53:05;8.30;99.90
8888;DHT22;4480;52.370;9.748;2024-01-25T12:55:32;8.20;99.90
8888;DHT22;4480;52.370;9.748;2024-01-25T12:58:00;8.20;99.90
8888;DHT22;4480;52.370;9.748;2024-01-25T13:00:27;8.10;99.90
8888;DHT22;4480;52.370;9.748;2024-01-25T13:02:55;8.00;99.90
8888;DHT22;4480;52.370;9.748;2024-01-25T13:05:22;8.00;99.90
8888;DHT22;4480;52.370;9.748;2024-01-25T13:07:49;7.90;99.90
8888;DHT22;4480;52.370;9.748;2024-01-25T13:10:16;7.90;99.90
8888;DHT22;4480;52.370;9.748;2024-01-25T13:12:42;7.90;99.90
8888;DHT22;4480;52.370;9.748;2024-01-25T13:15:09;7.90;99.90
8888;DHT22;4480;52.370;9.748;2024-01-25T13:17:37;7.90;99.90
8888;DHT22;4480;52.370;9.748;2024-01-25T13:20:06;7.90;99.90
8888;DHT22;4480;52.370;9.748;2024-01-25T13:22:33;7.90;99.90
8888;DHT22;4480;52.370;9.748;2024-01-25T13:25:01;7.90;99.90
8888;DHT22;4480;52.370;9.748;2024-01-25T13:27:28;8.00;99.90
8888;DHT22;4480;52.370;9.748;2024-01-25T13:29:54;8.00;99.90
8888;DHT22;4480;52.370;9.748;2024-01-25T13:32:22;8.00;99.90
8888;DHT22;4480;52.370;9.748;2024-01-25T13:34:49;8.10;99.90
8888;DHT22;4480;52.370;9.748;2024-01-25T13:37:17;8.10;99.90
8888;DHT22;4480;52.370;9.748;2024-01-25T13:39:44;8.20;99.90
8888;DHT22;4480;52.370;9.748;2024-01-25T13:42:11;8.30;99.90
8888;DHT22;4480;52.370;9.748;2024-01-25T13:44:37;8.50;99.90
8888;DHT22;4480;52.370;9.748;2024-01-25T13:47:05;8.60;99.90
8888;DHT22;4480;52.370;9.748;2024-01-25T13:49:32;8.60;99.90
8888;DHT22;4480;52.370;9.748;2024-01-25T13:52:00;8.60;99.90
8888;DHT22;4480;52.370;9.748;2024-01-25T13:54:29;8.70;99.90
8888;DHT22;4480;52.370;9.748;2024-01-25T13:56:56;8.60;99.90
8888;DHT22;4480;52.370;9.748;2024-01-25T13:59:22;8.60;99.90
8888;DHT22;4480;52.370;9.748;2024-01-25T14:01:51;8.60;99.90
8888;DHT22;4480;52.370;9.748;2024-01-25T14:04:18;8.60;99.90
8888;DHT22;4480;52.370;9.748;2024-01-25T14:06:44;8.50;99.90
8888;DHT22;4480;52.370;9.748;2024-01-25T14:09:11;8.50;99.90
8888;DHT22;4480;52.370;9.748;2024-01-25T14:11:39;8.40;99.90
8888;DHT22;4480;52.370;9.748;2024-01-25T14:14:06;8.30;99.90
8888;DHT22;4480;52.370;9.748;2024-01-25T14:16:33;8.30;99.90
8888;DHT22;4480;52.370;9.748;2024-01-25T14:18:59;8.20;99.90
8888;DHT22;4480;52.370;9.748;2024-01-25T14:21:29;8.20;99.90
8888;DHT22;4480;52.370;9.748;2024-01-25T14:23:56;8.20;99.90
8888;DHT22;4480;52.370;9.748;2024-01-25T14:26:22;8.20;99.90
8888;DHT22;4480;52.370;9.748;2024-01-25T14:28:51;8.10;99.90
8888;DHT22;4480;52.370;9.748;2024-01-25T14:31:17;8.10;99.90
8888;DHT22;4480;52.370;9.748;2024-01-25T14:33:44;8.00;99.90
8888;DHT22;4480;52.370;9.748;2024-01-25T14:36:11;8.10;99.90
8888;DHT22;4480;52.370;9.748;2024-01-25T14:38:39;8.10;99.90
8888;DHT22;4480;52.370;9.748;2024-01-25T14:41:08;8.00;99.90
8888;DHT22;4480;52.370;9.748;2024-01-25T14:43:37;8.00;99.90
8888;DHT22;4480;52.370;9.748;2024-01-25T14:46:05;8.00;99.90
8888;DHT22;4480;52.370;9.748;2024-01-25T14:48:32;8.00;99.90
8888;DHT22;4480;52.370;9.748;2024-01-25T14:50:59;8.00;99.90
8888;DHT22;4480;52.370;9.748;2024-01-25T14:53:26;8.00;99.90
8888;DHT22;4480;52.370;9.748;2024-01-25T14:55:52;8.00;99.90
8888;DHT22;4480;52.370;9.748;2024-01-25T14:58:19;8.00;99.90
8888;DHT22;4480;52.370;9.748;2024-01-25T15:00:48;8.00;99.90
8888;DHT22;4480;52.370;9.748;2024-01-25T15:03:17;8.00;99.90
8888;DHT22;4480;52.370;9.748;2024-01-25T15:05:44;8.00;99.90
8888;DHT22;4480;52.370;9.748;2024-01-25T15:08:11;7.90;99.90
8888;DHT22;4480;52.370;9.748;2024-01-25T15:10:37;7.90;99.90
8888;DHT22;4480;52.370;9.748;2024-01-25T15:13:04;7.90;99.90
8888;DHT22;4480;52.370;9.748;2024-01-25T15:15:31;7.80;99.90
8888;DHT22;4480;52.370;9.748;2024-01-25T15:17:58;7.80;99.90
8888;DHT22;4480;52.370;9.748;2024-01-25T15:20:26;7.80;99.90
8888;DHT22;4480;52.370;9.748;2024-01-25T15:22:54;7.70;99.90
8888;DHT22;4480;52.370;9.748;2024-01-25T15:25:22;7.70;99.90
8888;DHT22;4480;52.370;9.748;2024-01-25T15:27:50;7.70;99.90
8888;DHT22;4480;52.370;9.748;2024-01-25T15:30:17;7.70;99.90
8888;DHT22;4480;52.370;9.748;2024-01-25T15:32:43;7.60;99.90
8888;DHT22;4480;52.370;9.748;2024-01-25T15:35:12;7.60;99.90
8888;DHT22;4480;52.370;9.748;2024-01-25T15:37:40;7.60;99.90
8888;DHT22;4480;52.370;9.748;2024-01-25T15:40:08;7.50;99.90
8888;DHT22;4480;52.370;9.748;2024-01-25T15:42:37;7.50;99.90
8888;DHT22;4480;52.370;9.748;2024-01-25T15:45:05;7.40;99.90
8888;DHT22;4480;52.370;9.748;2024-01-25T15:47:32;7.40;99.90
8888;DHT22;4480;52.370;9.748;2024-01-25T15:49:59;7.30;99.90
8888;DHT22;4480;52.370;9.748;2024-01-25T15:52:26;7.30;99.90
8888;DHT22;4480;52.370;9.748;2024-01-25T15:54:54;7.20;99.90
8888;DHT22;4480;52.370;9.748;2024-01-25T15:57:20;7.20;99.90
8888;DHT22;4480;52.370;9.748;2024-01-25T15:59:47;7.20;99.90
8888;DHT22;4480;52.370;9.748;2024-01-25T16:02:15;7.10;99.90
8888;DHT22;4480;52.370;9.748;2024-01-25T16:04:42;7.10;99.90
8888;DHT22;4480;52.370;9.748;2024-01-25T16:07:08;7.00;99.90
8888;DHT22;4480;52.370;9.748;2024-01-25T16:09:35;7.00;99.90
8888;DHT22;4480;52.370;9.748;2024-01-25T16:12:06;7.00;99.90
8888;DHT22;4480;52.370;9.748;2024-01-25T16:14:32;6.90;99.90
8888;DHT22;4480;52.370;9.748;2024-01-25T16:16:59;6.90;99.90
8888;DHT22;4480;52.370;9.748;2024-01-25T16:19:26;6.90;99.90
8888;DHT22;4480;52.370;9.748;2024-01-25T16:21:53;6.80;99.90